Time;durP1;ratioP1;P1;durP2;ratioP2;P2;SDS_P1;SDS_P2;PMS_P1;PMS_P2;Temp;Humidity;BMP_temperature;BMP_pressure;BME280_temperature;BME280_humidity;BME280_pressure;Samples;Min_cycle;Max_cycle;Signal;HPM_P1;HPM_P2
2023/04/04 00:00:20;;;;;;;11.48;9.48;;;7.70;99.90;;;;;;5033052;28;20030;-75
2023/04/04 00:02:47;;;;;;;14.80;9.93;;;7.60;99.90;;;;;;5034604;28;20467;-75
2023/04/04 00:05:13;;;;;;;12.70;9.73;;;7.60;99.90;;;;;;5033024;28;20484;-75
2023/04/04 00:07:39;;;;;;;11.90;10.57;;;7.50;99.90;;;;;;5032672;28;20384;-75
2023/04/04 00:10:06;;;;;;;11.82;10.05;;;7.70;99.90;;;;;;5033312;28;20029;-75
2023/04/04 00:12:32;;;;;;;11.75;9.57;;;7.60;99.90;;;;;;5016720;28;20184;-74
2023/04/04 00:14:58;;;;;;;11.23;9.32;;;7.60;99.90;;;;;;5016683;28;20412;-75
2023/04/04 00:17:24;;;;;;;16.23;9.18;;;7.40;99.90;;;;;;5032548;28;20479;-75
2023/04/04 00:19:50;;;;;;;11.30;8.47;;;7.30;99.90;;;;;;5034258;28;20033;-74
2023/04/04 00:22:17;;;;;;;13.20;8.80;;;7.20;99.90;;;;;;5032614;28;20018;-75
2023/04/04 00:24:43;;;;;;;10.03;8.97;;;7.00;99.90;;;;;;5034037;28;20140;-75
2023/04/04 00:27:10;;;;;;;12.43;9.27;;;7.00;99.90;;;;;;5047198;28;20039;-75
2023/04/04 00:29:36;;;;;;;10.67;8.80;;;6.90;99.90;;;;;;5053939;28;20025;-75
2023/04/04 00:32:02;;;;;;;13.18;9.35;;;6.90;99.90;;;;;;5053446;28;20029;-75
2023/04/04 00:34:28;;;;;;;11.83;9.40;;;6.90;99.90;;;;;;5053639;28;20025;-74
2023/04/04 00:36:54;;;;;;;11.27;9.13;;;6.90;99.90;;;;;;5052179;28;20029;-75
2023/04/04 00:39:22;;;;;;;11.30;8.90;;;6.80;99.90;;;;;;5053641;28;20048;-75
2023/04/04 00:41:48;;;;;;;11.30;9.23;;;6.70;99.90;;;;;;5052488;28;20073;-74
2023/04/04 00:44:14;;;;;;;13.77;9.77;;;6.70;99.90;;;;;;5052396;28;20383;-75
2023/04/04 00:46:40;;;;;;;11.13;9.07;;;6.80;99.90;;;;;;5051890;28;20033;-75
2023/04/04 00:49:07;;;;;;;10.53;9.10;;;6.80;99.90;;;;;;5069032;28;20025;-75
2023/04/04 00:51:33;;;;;;;10.47;8.40;;;6.80;99.90;;;;;;5034093;28;20057;-75
2023/04/04 00:53:59;;;;;;;13.03;9.40;;;6.80;99.90;;;;;;5033380;28;20025;-75
2023/04/04 00:56:25;;;;;;;10.53;9.00;;;6.70;99.90;;;;;;5015935;28;20021;-75
2023/04/04 00:58:51;;;;;;;10.20;9.10;;;6.70;99.90;;;;;;5033322;28;20503;-75
2023/04/04 01:01:17;;;;;;;10.07;8.90;;;6.70;99.90;;;;;;5031734;28;20025;-75
2023/04/04 01:03:44;;;;;;;12.47;9.50;;;6.70;99.90;;;;;;5015790;28;20029;-75
2023/04/04 01:06:10;;;;;;;12.17;9.20;;;6.60;99.90;;;;;;5031621;28;20025;-75
2023/04/04 01:08:39;;;;;;;14.47;9.40;;;6.60;99.90;;;;;;5015758;28;20025;-74
2023/04/04 01:11:05;;;;;;;11.57;8.93;;;6.60;99.90;;;;;;5033005;28;20037;-75
2023/04/04 01:13:31;;;;;;;11.80;9.57;;;6.60;99.90;;;;;;5031906;28;20030;-75
2023/04/04 01:15:58;;;;;;;14.53;9.43;;;6.50;99.90;;;;;;5032648;28;20037;-75
2023/04/04 01:18:24;;;;;;;12.07;9.50;;;6.50;99.90;;;;;;5014930;28;20053;-75
2023/04/04 01:21:03;;;;;;;11.67;9.63;;;6.50;99.90;;;;;;5031568;28;20025;-75
2023/04/04 01:23:42;;;;;;;13.37;10.07;;;6.50;99.90;;;;;;5031816;28;20030;-75
2023/04/04 01:26:08;;;;;;;13.27;9.63;;;6.30;99.90;;;;;;5004688;28;20045;-75
2023/04/04 01:28:35;;;;;;;13.07;9.33;;;6.30;99.90;;;;;;5051657;28;20044;-75
2023/04/04 01:31:04;;;;;;;12.57;9.13;;;6.30;99.90;;;;;;5052279;28;20376;-75
2023/04/04 01:33:33;;;;;;;11.53;9.93;;;6.30;99.90;;;;;;5035069;28;20475;-75
2023/04/04 01:36:12;;;;;;;13.37;10.43;;;6.30;99.90;;;;;;5034975;28;20033;-75
2023/04/04 01:39:19;;;;;;;13.40;9.53;;;6.20;99.90;;;;;;5036069;28;20483;-74
2023/04/04 01:41:45;;;;;;;10.27;8.73;;;6.20;99.90;;;;;;5048652;28;20390;-75
2023/04/04 01:44:11;;;;;;;12.20;8.70;;;6.20;99.90;;;;;;5034746;28;20502;-75
2023/04/04 01:46:37;;;;;;;9.77;7.93;;;6.10;99.90;;;;;;5050894;28;20044;-75
2023/04/04 01:49:03;;;;;;;12.17;9.30;;;6.10;99.90;;;;;;5052225;28;20032;-75
2023/04/04 01:51:30;;;;;;;13.63;8.37;;;6.00;99.90;;;;;;5033760;28;20459;-75
2023/04/04 01:53:56;;;;;;;12.40;8.00;;;6.00;99.90;;;;;;5014824;28;20052;-75
2023/04/04 01:56:22;;;;;;;8.73;7.10;;;6.00;99.90;;;;;;5031154;28;20033;-75
2023/04/04 01:58:48;;;;;;;7.77;6.10;;;6.00;99.90;;;;;;5014543;28;20049;-75
2023/04/04 02:01:14;;;;;;;12.13;9.40;;;5.90;99.90;;;;;;5029927;28;20044;-74
2023/04/04 02:03:41;;;;;;;11.43;8.87;;;5.90;99.90;;;;;;5039572;28;20029;-75
2023/04/04 02:06:07;;;;;;;8.27;7.03;;;5.90;99.90;;;;;;5048061;28;20036;-75
2023/04/04 02:08:34;;;;;;;12.03;7.83;;;5.90;99.90;;;;;;5049864;28;20033;-74
2023/04/04 02:11:00;;;;;;;11.67;8.97;;;5.90;99.90;;;;;;5049457;28;20032;-75
2023/04/04 02:13:26;;;;;;;14.40;8.73;;;5.90;99.90;;;;;;5049477;28;20044;-75
2023/04/04 02:15:53;;;;;;;10.73;8.53;;;5.80;99.90;;;;;;5048876;28;20029;-75
2023/04/04 02:18:19;;;;;;;10.83;8.90;;;5.80;99.90;;;;;;5050317;28;20033;-75
2023/04/04 02:20:45;;;;;;;9.97;8.53;;;5.80;99.90;;;;;;5048968;28;20069;-75
2023/04/04 02:23:11;;;;;;;11.67;5.07;;;5.80;99.90;;;;;;5050118;28;20037;-75
2023/04/04 02:25:37;;;;;;;9.00;4.93;;;5.80;99.90;;;;;;5054727;28;20025;-75
2023/04/04 02:28:03;;;;;;;9.17;7.43;;;5.80;99.90;;;;;;5054904;28;20086;-75
2023/04/04 02:30:30;;;;;;;11.23;7.47;;;5.70;99.90;;;;;;5054369;28;20045;-74
2023/04/04 02:32:59;;;;;;;6.93;5.40;;;5.70;99.90;;;;;;5054416;28;20033;-75
2023/04/04 02:35:25;;;;;;;9.33;6.00;;;5.70;99.90;;;;;;5053394;28;20360;-75
2023/04/04 02:37:51;;;;;;;6.80;5.23;;;5.70;99.90;;;;;;5055250;28;20490;-74
2023/04/04 02:40:18;;;;;;;13.40;8.27;;;5.70;99.90;;;;;;5056088;28;20029;-75
2023/04/04 02:42:44;;;;;;;7.57;5.60;;;5.70;99.90;;;;;;5055980;28;20364;-75
2023/04/04 02:45:10;;;;;;;5.03;4.33;;;5.70;99.90;;;;;;5055132;28;20033;-75
2023/04/04 02:47:37;;;;;;;7.13;6.30;;;5.60;99.90;;;;;;5055557;28;20033;-75
2023/04/04 02:50:03;;;;;;;7.10;5.43;;;5.60;99.90;;;;;;5049222;28;20041;-75
2023/04/04 02:52:30;;;;;;;8.73;7.43;;;5.60;99.90;;;;;;5017847;28;20045;-74
2023/04/04 02:54:56;;;;;;;4.60;4.17;;;5.60;99.90;;;;;;5017600;28;20038;-75
2023/04/04 02:57:22;;;;;;;9.47;8.50;;;5.60;99.90;;;;;;5034372;28;20025;-74
2023/04/04 02:59:48;;;;;;;7.37;5.27;;;5.50;99.90;;;;;;5034483;28;20044;-75
2023/04/04 03:02:14;;;;;;;7.57;5.70;;;5.50;99.90;;;;;;5033285;28;20435;-74
2023/04/04 03:04:40;;;;;;;7.70;6.90;;;5.50;99.90;;;;;;5034273;28;20387;-74
2023/04/04 03:07:06;;;;;;;5.63;5.00;;;5.50;99.90;;;;;;5035648;28;20033;-75
2023/04/04 03:09:32;;;;;;;9.60;7.40;;;5.40;99.90;;;;;;5035429;28;20037;-75
2023/04/04 03:11:59;;;;;;;7.13;5.73;;;5.40;99.90;;;;;;5034196;28;20041;-75
2023/04/04 03:14:26;;;;;;;8.70;7.00;;;5.40;99.90;;;;;;5034282;28;20029;-75
2023/04/04 03:16:52;;;;;;;10.70;7.83;;;5.40;99.90;;;;;;5034580;28;20033;-75
2023/04/04 03:19:18;;;;;;;9.80;7.60;;;5.40;99.90;;;;;;5034143;28;20042;-74
2023/04/04 03:21:45;;;;;;;14.90;7.93;;;5.40;99.90;;;;;;5034244;28;20025;-75
2023/04/04 03:24:11;;;;;;;8.43;7.57;;;5.40;99.90;;;;;;5033628;28;20045;-75
2023/04/04 03:26:37;;;;;;;12.77;8.57;;;5.40;99.90;;;;;;5043830;28;20391;-74
2023/04/04 03:29:03;;;;;;;11.77;8.47;;;5.50;99.90;;;;;;5053933;28;20044;-75
2023/04/04 03:31:29;;;;;;;14.57;8.60;;;5.50;99.90;;;;;;5054195;28;20045;-75
2023/04/04 03:33:56;;;;;;;10.67;7.77;;;5.50;99.90;;;;;;5053809;28;20067;-75
2023/04/04 03:36:22;;;;;;;12.20;9.13;;;5.60;99.90;;;;;;5054999;28;20025;-75
2023/04/04 03:38:48;;;;;;;12.03;8.00;;;5.60;99.90;;;;;;5054673;28;20041;-75
2023/04/04 03:41:14;;;;;;;13.37;8.77;;;5.60;99.90;;;;;;5053657;28;20040;-75
2023/04/04 03:43:40;;;;;;;12.13;8.17;;;5.70;99.90;;;;;;5054742;28;20032;-75
2023/04/04 03:46:06;;;;;;;11.03;8.27;;;5.60;99.90;;;;;;5053996;28;20036;-75
2023/04/04 03:48:33;;;;;;;11.17;7.73;;;5.70;99.90;;;;;;5053533;28;20051;-74
2023/04/04 03:50:59;;;;;;;14.40;8.40;;;5.80;99.90;;;;;;5056294;28;20041;-75
2023/04/04 03:53:25;;;;;;;9.30;8.03;;;5.70;99.90;;;;;;5033514;28;20021;-75
2023/04/04 03:55:52;;;;;;;10.80;8.33;;;5.50;99.90;;;;;;5033571;28;20056;-74
2023/04/04 03:58:18;;;;;;;10.20;8.63;;;5.50;99.90;;;;;;5016947;28;20028;-74
2023/04/04 04:00:44;;;;;;;10.13;8.60;;;5.40;99.90;;;;;;5033822;28;20025;-75
2023/04/04 04:03:10;;;;;;;9.93;8.00;;;5.40;99.90;;;;;;5034758;28;20083;-74
2023/04/04 04:05:36;;;;;;;10.73;8.70;;;5.40;99.90;;;;;;5034472;28;20033;-75
2023/04/04 04:08:03;;;;;;;9.07;7.57;;;5.40;99.90;;;;;;5034513;28;20025;-75
2023/04/04 04:10:29;;;;;;;12.57;8.93;;;5.40;99.90;;;;;;5033222;28;20025;-74
2023/04/04 04:12:55;;;;;;;11.03;8.90;;;5.30;99.90;;;;;;5016399;28;20439;-75
2023/04/04 04:15:22;;;;;;;16.40;8.47;;;5.30;99.90;;;;;;5033413;28;20041;-75
2023/04/04 04:17:48;;;;;;;12.30;8.53;;;5.20;99.90;;;;;;5033053;28;20034;-75
2023/04/04 04:20:14;;;;;;;8.27;6.10;;;5.30;99.90;;;;;;5034087;28;20049;-75
2023/04/04 04:22:47;;;;;;;10.87;7.97;;;5.20;99.90;;;;;;5016561;28;20087;-75
2023/04/04 04:25:14;;;;;;;11.20;8.30;;;5.10;99.90;;;;;;5032741;28;20395;-75
2023/04/04 04:27:40;;;;;;;11.37;9.10;;;5.10;99.90;;;;;;5033901;28;20033;-75
2023/04/04 04:30:07;;;;;;;11.67;8.90;;;5.20;99.90;;;;;;5051957;28;20048;-75
2023/04/04 04:32:33;;;;;;;11.17;8.73;;;5.40;99.90;;;;;;5053735;28;20029;-75
2023/04/04 04:35:00;;;;;;;15.57;9.00;;;5.40;99.90;;;;;;5053816;28;20041;-75
2023/04/04 04:37:26;;;;;;;11.30;8.50;;;5.20;99.90;;;;;;5052666;28;20029;-75
2023/04/04 04:39:52;;;;;;;10.83;8.87;;;5.10;99.90;;;;;;5053467;28;20037;-75
2023/04/04 04:42:18;;;;;;;12.60;8.43;;;5.20;99.90;;;;;;5053452;28;20486;-75
2023/04/04 04:44:44;;;;;;;10.87;8.53;;;5.20;99.90;;;;;;5036744;28;20030;-75
2023/04/04 04:47:10;;;;;;;12.47;8.87;;;5.20;99.90;;;;;;5015164;28;20030;-75
2023/04/04 04:49:36;;;;;;;11.47;8.10;;;5.10;99.90;;;;;;5015788;28;20449;-75
2023/04/04 04:52:03;;;;;;;11.20;8.20;;;5.00;99.90;;;;;;5033318;28;20053;-75
2023/04/04 04:54:29;;;;;;;14.50;7.70;;;4.90;99.90;;;;;;5032254;28;20056;-74
2023/04/04 04:56:56;;;;;;;11.97;8.60;;;4.90;99.90;;;;;;5033131;28;20037;-74
2023/04/04 04:59:22;;;;;;;13.17;8.77;;;4.80;99.90;;;;;;5033333;28;20038;-75
2023/04/04 05:01:48;;;;;;;9.80;8.00;;;4.70;99.90;;;;;;5033214;28;20503;-75
2023/04/04 05:04:16;;;;;;;12.23;9.00;;;4.70;99.90;;;;;;5033185;28;20049;-75
2023/04/04 05:06:42;;;;;;;12.57;8.70;;;4.70;99.90;;;;;;5031658;28;20037;-75
2023/04/04 05:09:08;;;;;;;12.57;8.93;;;4.70;99.90;;;;;;5032300;28;20026;-75
2023/04/04 05:14:57;;;;;;;17.43;9.30;;;4.60;99.90;;;;;;5034926;28;20033;-75
2023/04/04 05:17:23;;;;;;;11.93;8.10;;;4.50;99.90;;;;;;5032645;28;20408;-75
2023/04/04 05:19:49;;;;;;;9.63;8.57;;;4.60;99.90;;;;;;5032930;28;20037;-74
2023/04/04 05:22:15;;;;;;;13.93;8.80;;;4.50;99.90;;;;;;5031893;28;20473;-75
2023/04/04 05:24:42;;;;;;;13.90;8.53;;;4.50;99.90;;;;;;5032949;28;20040;-75
2023/04/04 05:27:08;;;;;;;10.13;8.50;;;4.50;99.90;;;;;;5032425;28;20491;-75
2023/04/04 05:29:34;;;;;;;13.50;9.30;;;4.40;99.90;;;;;;5033029;28;20041;-75
2023/04/04 05:32:00;;;;;;;12.73;8.90;;;4.50;99.90;;;;;;5031240;28;20600;-75
2023/04/04 05:34:26;;;;;;;9.10;7.97;;;4.40;99.90;;;;;;5031615;28;20029;-75
2023/04/04 05:36:52;;;;;;;13.57;8.37;;;4.40;99.90;;;;;;5032627;28;20029;-75
2023/04/04 05:39:18;;;;;;;12.13;8.83;;;4.40;99.90;;;;;;5032574;28;20039;-75
2023/04/04 05:41:44;;;;;;;14.70;8.73;;;4.40;99.90;;;;;;5032409;28;20037;-75
2023/04/04 05:44:10;;;;;;;10.30;8.70;;;4.30;99.90;;;;;;5021728;28;20034;-75
2023/04/04 05:46:36;;;;;;;11.10;8.77;;;4.30;99.90;;;;;;4994971;28;20030;-74
2023/04/04 05:49:02;;;;;;;12.53;7.30;;;4.30;99.90;;;;;;5012797;28;20479;-75
2023/04/04 05:51:28;;;;;;;12.10;7.97;;;4.30;99.90;;;;;;5029377;28;20056;-75
2023/04/04 05:53:55;;;;;;;12.23;8.73;;;4.20;99.90;;;;;;5014768;28;20487;-75
2023/04/04 05:56:21;;;;;;;12.50;9.47;;;4.30;99.90;;;;;;5032383;28;20037;-74
2023/04/04 05:58:47;;;;;;;14.73;10.17;;;4.30;99.90;;;;;;5014160;28;20033;-74
2023/04/04 06:01:13;;;;;;;11.10;9.07;;;4.30;99.90;;;;;;5031897;28;20030;-74
2023/04/04 06:03:39;;;;;;;11.93;8.97;;;4.30;99.90;;;;;;5031022;28;20038;-74
2023/04/04 06:06:05;;;;;;;12.63;8.67;;;4.30;99.90;;;;;;5032226;28;20037;-75
2023/04/04 06:08:31;;;;;;;11.10;8.80;;;4.30;99.90;;;;;;5031125;28;20036;-74
2023/04/04 06:10:57;;;;;;;10.83;8.73;;;4.20;99.90;;;;;;5030911;28;20030;-75
2023/04/04 06:13:24;;;;;;;12.20;8.90;;;4.20;99.90;;;;;;5030890;28;20034;-75
2023/04/04 06:15:50;;;;;;;12.87;8.57;;;4.30;99.90;;;;;;5030500;28;20029;-74
2023/04/04 06:18:16;;;;;;;12.17;9.07;;;4.30;99.90;;;;;;5031112;28;20037;-74
2023/04/04 06:20:42;;;;;;;10.70;7.87;;;4.40;99.90;;;;;;5032611;28;20408;-75
2023/04/04 06:23:08;;;;;;;9.60;8.20;;;4.30;99.90;;;;;;5031017;28;20029;-75
2023/04/04 06:25:35;;;;;;;11.67;8.77;;;4.50;99.90;;;;;;5030395;28;20037;-75
2023/04/04 06:28:02;;;;;;;9.03;8.13;;;4.60;99.90;;;;;;5030855;28;20037;-75
2023/04/04 06:30:28;;;;;;;13.67;7.80;;;4.80;99.90;;;;;;5030487;28;20041;-75
2023/04/04 06:32:55;;;;;;;11.37;7.93;;;5.00;99.90;;;;;;5030762;28;20501;-75
2023/04/04 06:35:21;;;;;;;7.80;7.00;;;5.20;99.90;;;;;;5030736;28;20144;-74
2023/04/04 06:37:52;;;;;;;12.27;8.20;;;5.30;99.90;;;;;;5030947;28;20022;-75
2023/04/04 06:40:19;;;;;;;13.33;8.10;;;5.50;99.90;;;;;;5013963;28;20046;-75
2023/04/04 06:42:52;;;;;;;10.37;7.73;;;5.70;99.90;;;;;;5030773;28;20468;-75
2023/04/04 06:45:18;;;;;;;7.67;6.27;;;5.80;99.90;;;;;;5011627;28;20033;-75
2023/04/04 06:47:45;;;;;;;9.40;7.97;;;5.90;99.90;;;;;;4994852;28;20030;-75
2023/04/04 06:50:12;;;;;;;7.50;6.57;;;6.00;99.90;;;;;;5018312;28;20033;-75
2023/04/04 06:52:38;;;;;;;13.73;8.07;;;6.10;99.90;;;;;;5031727;28;20492;-75
2023/04/04 06:55:04;;;;;;;11.60;8.63;;;6.20;99.90;;;;;;5030024;28;20029;-75
2023/04/04 06:57:30;;;;;;;9.07;7.43;;;6.30;99.90;;;;;;5013149;28;20045;-75
2023/04/04 06:59:56;;;;;;;7.90;6.43;;;6.40;99.90;;;;;;5031580;28;20044;-75
2023/04/04 07:02:23;;;;;;;7.10;5.87;;;6.50;99.90;;;;;;5050609;28;20072;-75
2023/04/04 07:04:49;;;;;;;8.50;6.90;;;6.50;99.90;;;;;;5050233;28;20044;-75
2023/04/04 07:07:15;;;;;;;7.83;7.13;;;6.60;99.90;;;;;;5051577;28;20044;-75
2023/04/04 07:09:42;;;;;;;9.85;6.57;;;6.70;99.90;;;;;;5051602;28;20040;-75
2023/04/04 07:12:08;;;;;;;9.65;5.80;;;6.80;99.90;;;;;;5055438;28;20021;-75
2023/04/04 07:14:34;;;;;;;10.43;7.93;;;6.90;99.90;;;;;;5055278;28;20033;-74
2023/04/04 07:17:01;;;;;;;5.50;4.70;;;7.00;99.90;;;;;;5054888;28;20104;-75
2023/04/04 07:19:27;;;;;;;7.88;6.88;;;7.00;99.90;;;;;;5054043;28;20060;-75
2023/04/04 07:21:54;;;;;;;8.10;6.50;;;7.10;99.90;;;;;;5054849;28;20025;-75
2023/04/04 07:24:20;;;;;;;4.18;3.88;;;7.20;99.90;;;;;;5037693;28;20021;-75
2023/04/04 07:26:47;;;;;;;19.17;5.90;;;7.30;99.90;;;;;;5053910;28;20031;-75
2023/04/04 07:29:13;;;;;;;10.05;6.63;;;7.20;99.90;;;;;;5053897;28;20033;-74
2023/04/04 07:31:40;;;;;;;6.53;5.85;;;7.40;99.90;;;;;;5053540;28;20037;-75
2023/04/04 07:34:06;;;;;;;6.20;5.60;;;7.40;99.90;;;;;;5036617;28;20044;-75
2023/04/04 07:36:32;;;;;;;8.25;5.63;;;7.50;99.90;;;;;;5053423;28;20497;-75
2023/04/04 07:38:58;;;;;;;6.45;5.78;;;7.60;99.90;;;;;;5055080;28;20037;-75
2023/04/04 07:41:25;;;;;;;8.95;6.55;;;7.70;99.90;;;;;;5054770;28;20407;-75
2023/04/04 07:43:51;;;;;;;11.65;6.20;;;7.80;99.90;;;;;;5046565;28;20036;-75
2023/04/04 07:46:17;;;;;;;7.15;6.45;;;7.90;99.90;;;;;;5034477;28;20044;-75
2023/04/04 07:48:43;;;;;;;5.25;4.82;;;8.10;99.90;;;;;;5017370;28;20041;-75
2023/04/04 07:51:09;;;;;;;5.07;4.63;;;8.20;99.90;;;;;;5031177;28;20049;-73
2023/04/04 07:53:35;;;;;;;7.47;6.35;;;8.10;99.90;;;;;;5054639;28;20047;-75
2023/04/04 07:56:05;;;;;;;5.97;4.78;;;8.30;99.90;;;;;;5053393;28;20033;-75
2023/04/04 07:58:34;;;;;;;6.88;6.25;;;8.40;99.90;;;;;;5052830;28;20087;-75
2023/04/04 08:01:01;;;;;;;6.05;5.55;;;8.60;99.90;;;;;;5036179;28;20045;-74
2023/04/04 08:03:27;;;;;;;5.93;5.43;;;8.80;99.90;;;;;;5020075;28;20040;-74
2023/04/04 08:05:53;;;;;;;5.32;4.50;;;8.70;99.90;;;;;;5052955;28;20036;-74
2023/04/04 08:08:19;;;;;;;6.38;5.57;;;8.80;99.90;;;;;;5052821;28;20585;-74
2023/04/04 08:10:45;;;;;;;6.47;5.00;;;8.80;99.90;;;;;;5052419;28;20041;-75
2023/04/04 08:13:12;;;;;;;6.22;5.63;;;9.00;99.90;;;;;;5053125;28;20033;-74
2023/04/04 08:15:38;;;;;;;5.65;5.25;;;9.00;99.90;;;;;;5035686;28;20040;-74
2023/04/04 08:18:04;;;;;;;7.20;6.50;;;9.10;99.90;;;;;;5036088;28;20033;-75
2023/04/04 08:20:30;;;;;;;6.57;5.65;;;9.10;99.90;;;;;;5052162;28;20483;-74
2023/04/04 08:22:57;;;;;;;7.13;6.43;;;9.20;99.90;;;;;;5052623;28;20025;-75
2023/04/04 08:25:24;;;;;;;8.82;6.60;;;9.50;99.90;;;;;;5052838;28;20028;-75
2023/04/04 08:27:50;;;;;;;8.45;6.10;;;9.60;99.90;;;;;;5052824;28;20029;-74
2023/04/04 08:30:16;;;;;;;5.28;4.75;;;9.70;99.90;;;;;;5035510;28;20510;-74
2023/04/04 08:32:44;;;;;;;5.28;4.88;;;9.70;99.90;;;;;;5053988;28;20032;-75
2023/04/04 08:35:11;;;;;;;6.35;5.82;;;9.80;99.90;;;;;;5052312;28;20471;-74
2023/04/04 08:37:38;;;;;;;5.43;5.03;;;9.80;99.90;;;;;;5052725;28;20021;-75
2023/04/04 08:40:05;;;;;;;6.85;5.88;;;9.70;99.90;;;;;;5052602;28;20036;-75
2023/04/04 08:42:35;;;;;;;8.32;6.10;;;9.90;99.90;;;;;;5053863;28;20029;-74
2023/04/04 08:45:05;;;;;;;6.57;5.55;;;10.20;99.90;;;;;;5034665;28;20037;-75
2023/04/04 08:47:32;;;;;;;6.13;5.53;;;10.20;99.90;;;;;;5031720;28;20040;-75
2023/04/04 08:50:04;;;;;;;6.38;5.78;;;10.00;99.90;;;;;;5016791;28;20479;-75
2023/04/04 08:52:30;;;;;;;5.82;5.32;;;10.10;99.90;;;;;;5032328;28;20492;-74
2023/04/04 08:54:57;;;;;;;4.55;4.25;;;10.20;99.90;;;;;;5032349;28;20070;-75
2023/04/04 08:57:23;;;;;;;7.35;5.82;;;10.00;99.90;;;;;;5015503;28;20476;-74
2023/04/04 08:59:49;;;;;;;5.68;5.13;;;10.00;99.90;;;;;;5033463;28;20045;-75
2023/04/04 09:02:29;;;;;;;5.30;4.93;;;10.20;99.90;;;;;;5033169;28;20376;-75
2023/04/04 09:04:55;;;;;;;7.03;5.57;;;10.30;99.90;;;;;;5031911;28;20025;-75
2023/04/04 09:07:22;;;;;;;6.53;5.93;;;10.40;99.90;;;;;;5032195;28;20040;-75
2023/04/04 09:09:48;;;;;;;6.07;5.45;;;10.50;99.90;;;;;;5032301;28;20033;-75
2023/04/04 09:12:14;;;;;;;6.40;5.78;;;10.60;99.90;;;;;;5031965;28;20498;-75
2023/04/04 09:14:40;;;;;;;5.50;5.10;;;10.60;99.90;;;;;;5031171;28;20492;-75
2023/04/04 09:17:09;;;;;;;6.45;5.85;;;10.60;99.90;;;;;;5031605;28;20480;-75
2023/04/04 09:19:36;;;;;;;6.28;5.55;;;10.70;99.90;;;;;;5032636;28;20038;-75
2023/04/04 09:22:06;;;;;;;4.90;4.43;;;10.60;99.90;;;;;;5033173;28;20025;-75
2023/04/04 09:24:39;;;;;;;8.07;5.47;;;10.70;99.90;;;;;;5031936;28;20483;-75
2023/04/04 09:27:07;;;;;;;5.85;4.88;;;10.80;99.90;;;;;;5045133;28;20052;-75
2023/04/04 09:29:33;;;;;;;6.35;5.53;;;10.80;99.90;;;;;;5067998;28;20089;-75
2023/04/04 09:31:59;;;;;;;6.18;5.60;;;11.00;99.90;;;;;;5067299;28;20380;-75
2023/04/04 09:34:27;;;;;;;7.32;5.90;;;11.20;99.90;;;;;;5052035;28;20024;-75
2023/04/04 09:36:53;;;;;;;4.40;4.10;;;10.90;98.80;;;;;;5051565;28;20494;-74
2023/04/04 09:39:19;;;;;;;5.40;4.90;;;11.00;99.10;;;;;;5051158;28;20040;-74
2023/04/04 09:41:45;;;;;;;5.03;4.68;;;10.80;99.20;;;;;;5052744;28;20029;-75
2023/04/04 09:44:12;;;;;;;6.55;5.93;;;10.80;99.00;;;;;;5051251;28;20036;-75
2023/04/04 09:46:38;;;;;;;8.15;5.53;;;11.10;99.80;;;;;;5050961;28;20033;-75
2023/04/04 09:49:04;;;;;;;16.67;5.32;;;11.50;98.50;;;;;;5050474;28;20391;-75
2023/04/04 09:51:37;;;;;;;5.80;5.30;;;11.40;98.10;;;;;;5033826;28;20060;-75
2023/04/04 09:54:08;;;;;;;6.18;5.68;;;11.50;98.10;;;;;;5032393;28;20422;-75
2023/04/04 09:56:34;;;;;;;6.25;5.78;;;11.60;97.10;;;;;;5015325;28;20029;-75
2023/04/04 09:59:01;;;;;;;6.57;5.80;;;11.80;97.90;;;;;;5014926;28;20034;-75
2023/04/04 10:01:27;;;;;;;5.18;4.78;;;11.90;96.90;;;;;;5030442;28;20045;-75
2023/04/04 10:03:54;;;;;;;5.40;4.97;;;11.90;96.50;;;;;;5031199;28;20036;-75
2023/04/04 10:06:20;;;;;;;5.43;4.97;;;11.60;96.90;;;;;;5015026;28;20029;-75
2023/04/04 10:08:47;;;;;;;6.38;5.85;;;11.40;97.40;;;;;;5031186;28;20028;-76
2023/04/04 10:11:13;;;;;;;6.57;5.97;;;11.60;97.10;;;;;;5031063;28;20387;-75
2023/04/04 10:13:40;;;;;;;6.20;5.70;;;11.60;97.00;;;;;;5031176;28;20030;-75
2023/04/04 10:16:06;;;;;;;5.82;5.38;;;11.60;97.10;;;;;;5013934;28;20037;-75
2023/04/04 10:18:33;;;;;;;6.35;5.75;;;11.60;97.10;;;;;;5031168;28;20029;-75
2023/04/04 10:21:01;;;;;;;6.35;5.85;;;11.60;96.70;;;;;;5014741;28;20113;-75
2023/04/04 10:23:28;;;;;;;6.10;5.60;;;11.70;95.70;;;;;;5030959;28;20032;-75
2023/04/04 10:25:54;;;;;;;13.98;6.43;;;11.80;95.90;;;;;;5033281;28;20045;-75
2023/04/04 10:28:20;;;;;;;6.22;5.63;;;11.70;97.00;;;;;;5052211;28;20025;-75
2023/04/04 10:31:13;;;;;;;6.47;5.88;;;12.00;96.50;;;;;;5051269;28;20029;-75
2023/04/04 10:34:14;;;;;;;7.30;5.90;;;12.10;95.40;;;;;;5051030;28;20025;-75
2023/04/04 10:37:01;;;;;;;18.33;6.45;;;12.20;95.10;;;;;;5052031;28;20106;-75
2023/04/04 10:39:50;;;;;;;6.95;6.40;;;12.20;94.70;;;;;;5051950;28;20029;-75
2023/04/04 10:42:17;;;;;;;47.92;8.05;;;12.20;94.80;;;;;;5050800;28;20063;-76
2023/04/04 10:44:43;;;;;;;76.45;9.20;;;12.30;95.30;;;;;;5052080;28;20375;-76
2023/04/04 10:47:20;;;;;;;7.30;5.38;;;12.50;96.40;;;;;;5070652;28;20044;-76
2023/04/04 10:49:47;;;;;;;17.13;5.70;;;12.30;95.00;;;;;;5051751;28;20053;-76
2023/04/04 10:52:18;;;;;;;34.95;6.78;;;12.30;95.50;;;;;;5018157;28;20144;-76
2023/04/04 10:54:44;;;;;;;10.18;6.20;;;12.50;95.70;;;;;;5018243;28;20022;-76
2023/04/04 10:57:11;;;;;;;14.43;5.80;;;12.60;94.90;;;;;;5018243;28;20396;-74
2023/04/04 11:00:12;;;;;;;7.57;6.28;;;12.70;94.70;;;;;;5018017;28;20029;-76
2023/04/04 11:03:00;;;;;;;7.00;6.32;;;12.60;94.50;;;;;;5019415;28;20038;-75
2023/04/04 11:05:30;;;;;;;6.82;6.15;;;12.80;96.00;;;;;;5035568;28;20203;-76
2023/04/04 11:07:58;;;;;;;5.50;5.18;;;12.70;94.10;;;;;;5034475;28;20029;-75
2023/04/04 11:10:29;;;;;;;7.20;6.53;;;12.80;95.10;;;;;;5034413;28;20029;-76
2023/04/04 11:12:56;;;;;;;;;;;12.80;95.40;;;;;;5034996;28;20360;-76
2023/04/04 11:15:26;;;;;;;6.18;5.68;;;12.80;94.50;;;;;;5033590;28;19951;-76
2023/04/04 11:17:59;;;;;;;5.68;5.35;;;13.00;94.40;;;;;;5034122;28;20025;-76
2023/04/04 11:20:30;;;;;;;6.78;6.20;;;13.20;94.10;;;;;;5034293;28;20041;-76
2023/04/04 11:23:03;;;;;;;;;;;13.10;94.10;;;;;;5034659;28;20029;-76
2023/04/04 11:25:40;;;;;;;6.82;6.15;;;13.40;94.30;;;;;;5035322;28;19905;-76
2023/04/04 11:28:14;;;;;;;7.18;6.28;;;13.40;93.40;;;;;;5034101;28;20033;-75
2023/04/04 11:30:47;;;;;;;6.90;6.05;;;13.30;92.90;;;;;;5033277;28;20034;-76
2023/04/04 11:33:24;;;;;;;10.45;5.93;;;13.40;92.70;;;;;;5035164;28;20033;-75
2023/04/04 11:35:51;;;;;;;6.43;5.82;;;13.40;92.70;;;;;;5002674;28;20040;-75
2023/04/04 11:38:17;;;;;;;7.32;6.65;;;13.30;92.00;;;;;;5033992;28;20018;-76
2023/04/04 11:40:53;;;;;;;7.18;6.45;;;13.10;91.60;;;;;;5017168;28;20037;-76
2023/04/04 11:43:19;;;;;;;7.72;6.35;;;13.30;93.00;;;;;;5036918;28;20025;-76
2023/04/04 11:45:45;;;;;;;6.97;6.22;;;13.70;92.30;;;;;;5052816;28;20029;-76
2023/04/04 11:48:13;;;;;;;8.27;6.10;;;13.70;92.70;;;;;;5070413;28;20033;-76
2023/04/04 11:50:40;;;;;;;6.93;6.32;;;13.80;92.00;;;;;;5060051;28;20380;-76
2023/04/04 11:53:07;;;;;;;7.15;6.47;;;13.90;91.70;;;;;;5033489;28;20040;-76
2023/04/04 11:55:41;;;;;;;7.03;6.43;;;13.90;91.70;;;;;;5032779;28;20026;-76
2023/04/04 11:58:09;;;;;;;6.85;6.32;;;14.00;91.30;;;;;;5034020;28;20046;-76
2023/04/04 12:00:36;;;;;;;7.40;6.68;;;13.90;91.40;;;;;;5032943;28;20044;-75
2023/04/04 12:03:07;;;;;;;7.22;6.53;;;14.00;91.30;;;;;;5034544;28;20025;-76
2023/04/04 12:05:33;;;;;;;6.63;6.20;;;14.10;91.60;;;;;;5017202;28;20105;-76
2023/04/04 12:08:01;;;;;;;6.90;6.30;;;13.90;90.90;;;;;;5033312;28;20113;-76
2023/04/04 12:10:32;;;;;;;6.60;6.10;;;13.80;91.50;;;;;;5033306;28;20377;-75
2023/04/04 12:12:59;;;;;;;6.80;6.22;;;13.90;91.30;;;;;;5016718;28;20361;-76
2023/04/04 12:15:28;;;;;;;5.78;5.40;;;13.90;90.80;;;;;;5033887;28;20036;-76
2023/04/04 12:17:54;;;;;;;7.53;6.80;;;14.10;90.70;;;;;;5033126;28;20025;-76
2023/04/04 12:20:23;;;;;;;7.18;6.57;;;14.10;90.40;;;;;;5033135;28;20044;-76
2023/04/04 12:22:52;;;;;;;7.28;6.68;;;14.30;89.20;;;;;;5032981;28;20026;-76
2023/04/04 12:25:20;;;;;;;7.40;6.80;;;14.50;89.20;;;;;;5034143;28;20033;-76
2023/04/04 12:27:47;;;;;;;7.63;6.97;;;14.30;88.80;;;;;;5034243;28;20029;-76
2023/04/04 12:30:14;;;;;;;6.80;6.18;;;14.30;91.10;;;;;;5052421;28;20387;-76
2023/04/04 12:32:44;;;;;;;7.78;7.07;;;14.40;90.70;;;;;;5052904;28;20124;-75
2023/04/04 12:35:12;;;;;;;6.97;6.47;;;14.30;90.50;;;;;;5036316;28;20084;-75
2023/04/04 12:37:39;;;;;;;6.78;6.20;;;14.20;90.40;;;;;;5052707;28;20041;-75
2023/04/04 12:40:06;;;;;;;7.63;7.03;;;14.20;90.80;;;;;;5052548;28;20028;-76
2023/04/04 12:42:33;;;;;;;7.28;6.68;;;14.50;90.50;;;;;;5053343;28;20029;-76
2023/04/04 12:45:00;;;;;;;8.57;7.47;;;14.70;91.00;;;;;;5035059;28;20032;-76
2023/04/04 12:47:27;;;;;;;8.48;7.45;;;14.70;89.80;;;;;;5012306;28;20034;-75
2023/04/04 12:49:54;;;;;;;7.68;7.00;;;14.70;91.20;;;;;;5016347;28;20459;-76
2023/04/04 12:52:21;;;;;;;7.93;7.15;;;14.90;91.50;;;;;;5032565;28;20056;-76
2023/04/04 12:54:48;;;;;;;9.60;7.43;;;15.10;89.70;;;;;;5033450;28;20024;-76